Sevilla, Spain

11:38 AM CEST on October 20, 2014 (GMT +0200)
San Pablo | Change Station
CLOSE
Current Station
Airport
Location: Sevilla,
Elevation: 102 ft
Nearby Weather Stations

Elev 102 ft 37.42 °N, 5.89 °W | Updated 8 minutes ago

Clear
Clear
75 °F
Feels Like 75 °F
N
12
Wind Variable Wind from NE

Today
High -- | Low -- °F
--% Chance of Precip.
Yesterday
High -- | Low -- °F
Precip. -- in
8:36 AM 7:40 PM
Waning Crescent, 12% visible
Pressure 30.06 in
Visibility -9999.0 miles
Clouds
Dew Point 50 °F
Humidity 41%
Rainfall 0.00 in
Snow Depth Not available.
UV Not available.
Pollen Not available.
Air Quality Not available.
Flu Activity Not available.
METAR LEZL 200930Z 05010KT CAVOK 24/10 Q1018 NOSIG

More Conditions Fewer Conditions

Pressure 30.06 in
Visibility -9999.0 miles
Clouds
Dew Point 50 °F
Humidity 41%
Rainfall 0.00 in
Snow Depth Not available.
UV Not available.
Pollen Not available.
Air Quality Not available.
Flu Activity Not available.
METAR LEZL 200930Z 05010KT CAVOK 24/10 Q1018 NOSIG

More Conditions Fewer Conditions

10-Day Weather Forecast

Almanac

Astronomy

Oct. 20, 2014 Rise Set
Actual Time 8:36 AM CEST 7:40 PM CEST
Civil Twilight 8:09 AM CEST 8:06 PM CEST
Nautical Twilight 7:39 AM CEST 8:36 PM CEST
Astronomical Twilight 7:09 AM CEST 9:07 PM CEST
Moon 5:15 AM CEST 5:52 PM CEST
Length of Visible Light 11h 56m
Length of Day
11h 03m
Tomorrow will be 2m 16s shorter.
Waning Crescent, 12% of the Moon is Illuminated
Today
Waning Crescent
Oct 23
New
Oct 30
First Quarter
Nov 6
Full
Nov 14
Last Quarter

Yesterday's Extremes

Country Highs Country Lows

Community

WunderPhotos

Upload Photos

1,763,325 photos uploaded!

Nearby

Snow Depth

Not available.

Earthquake Activity

City Distance Mag. Time & Date
No recent earthquake activity has been reported nearby.
Minimum magnitude displayed is 2.5.

Coastal Water Temperatures

Place Temperature
No Stations Reporting

Nearby Weather Stations